METAR Data
IDs: Format: Raw Decoded Include TAF

Data at: 1140 UTC 15 Jul 2020

KOGB 151053Z AUTO 00000KT 5SM BR SCT100 24/24 A3006 RMK AO2 SLP175 T02390239
KOGB 150953Z AUTO 00000KT 7SM CLR 24/23 A3003 RMK AO2 SLP166 T02390233
KOGB 150853Z AUTO 08003KT 10SM CLR 24/24 A3001 RMK AO2 SLP160 T02390239 56004
KOGB 150753Z AUTO 00000KT 10SM FEW100 24/24 A3001 RMK AO2 SLP160 T02440239
KOGB 150653Z AUTO 00000KT 10SM BKN100 25/24 A3001 RMK AO2 SLP161 T02500239
KOGB 150553Z AUTO 09003KT 10SM SCT120 26/24 A3003 RMK AO2 SLP164 T02560239 10317 20256 58004
KOGB 150453Z AUTO 00000KT 10SM CLR 27/24 A3004 RMK AO2 SLP169 T02670239 403440233
KOGB 150353Z AUTO VRB04KT 10SM SCT065 27/23 A3005 RMK AO2 SLP171 T02720233
KOGB 150253Z AUTO VRB04KT 10SM FEW065 27/23 A3004 RMK AO2 SLP169 T02720228 53015
KOGB 150153Z AUTO 13006KT 10SM FEW070 28/22 A3003 RMK AO2 SLP164 T02830222
KOGB 150053Z AUTO 09003KT 10SM SCT110 30/23 A3000 RMK AO2 SLP156 T03000228
KOGB 142353Z AUTO 12003KT 10SM FEW110 32/21 A2999 RMK AO2 SLP154 T03170211 10344 20317 53009
KOGB 142253Z AUTO 12003KT 10SM SCT100 33/20 A2997 RMK AO2 SLP147 T03330200
KOGB 142153Z AUTO 13004KT 10SM OVC100 33/22 A2997 RMK AO2 SLP144 T03280222
KOGB 142053Z AUTO 19003KT 10SM CLR 33/22 A2997 RMK AO2 SLP145 T03330222 56005
KOGB 141953Z AUTO 21010KT 10SM CLR 33/23 A2997 RMK AO2 SLP145 T03330228
KOGB 141853Z AUTO 00000KT 10SM SCT055 33/22 A2998 RMK AO2 SLP148 T03330217
KOGB 141753Z AUTO 11005KT 10SM FEW042 FEW110 33/23 A2998 RMK AO2 SLP150 T03330228 10339 20250 58007
KOGB 141653Z AUTO 11005KT 10SM CLR 33/23 A2999 RMK AO2 SLP154 T03280228
KOGB 141553Z AUTO VRB05KT 10SM CLR 32/24 A3000 RMK AO2 SLP157 T03170239
KOGB 141453Z AUTO 04004KT 10SM SCT055 31/24 A3000 RMK AO2 SLP157 T03110239 51013
KOGB 141353Z AUTO 10003KT 10SM CLR 29/23 A3000 RMK AO2 SLP155 T02890233
KOGB 141253Z AUTO VRB03KT 10SM CLR 27/24 A2998 RMK AO2 SLP150 T02720244
KOGB 141153Z AUTO 05003KT 10SM CLR 25/23 A2996 RMK AO2 SLP143 T02500233 10250 20233 53020
KOGB 141053Z AUTO 00000KT 10SM CLR 24/23 A2994 RMK AO2 SLP136 T02390233
KOGB 140953Z AUTO 00000KT 10SM CLR 24/23 A2992 RMK AO2 SLP129 T02390233
KOGB 140853Z AUTO 00000KT 9SM CLR 24/23 A2990 RMK AO2 SLP123 T02390233 55002
KOGB 140753Z AUTO 00000KT 10SM CLR 24/24 A2990 RMK AO2 SLP122 T02390239
KOGB 140653Z AUTO 00000KT 10SM CLR 24/23 A2991 RMK AO2 SLP124 T02440233
KOGB 140553Z AUTO 00000KT 10SM CLR 24/23 A2991 RMK AO2 SLP126 T02440233 10322 20244 58002
KOGB 140453Z AUTO 00000KT 10SM SCT075 25/23 A2992 RMK AO2 SLP129 T02500233 403390233
KOGB 140353Z AUTO 00000KT 10SM FEW055 26/23 A2992 RMK AO2 SLP128 T02610228
KOGB 140253Z AUTO 13006KT 10SM FEW060 SCT090 27/22 A2992 RMK AO2 SLP127 T02670222 51021
KOGB 140153Z AUTO 07006KT 10SM BKN060 27/22 A2990 RMK AO2 SLP123 T02720222
KOGB 140053Z AUTO 00000KT 10SM CLR 28/22 A2987 RMK AO2 SLP112 T02780217
KOGB 132353Z AUTO 34004KT 10SM CLR 32/21 A2985 RMK AO2 SLP106 T03220211 10339 20322 51008